sensor_id;sensor_type;location;lat;lon;timestamp;P1;durP1;ratioP1;P2;durP2;ratioP2
12892;SDS011;6514;48.606;9.222;2024-03-02T00:01:31;17.73;;;11.53;;
12892;SDS011;6514;48.606;9.222;2024-03-02T00:03:58;21.07;;;12.20;;
12892;SDS011;6514;48.606;9.222;2024-03-02T00:06:24;19.00;;;11.27;;
12892;SDS011;6514;48.606;9.222;2024-03-02T00:08:51;15.33;;;10.60;;
12892;SDS011;6514;48.606;9.222;2024-03-02T00:11:24;18.20;;;11.60;;
12892;SDS011;6514;48.606;9.222;2024-03-02T00:13:52;17.97;;;11.60;;
12892;SDS011;6514;48.606;9.222;2024-03-02T00:16:19;18.93;;;11.80;;
12892;SDS011;6514;48.606;9.222;2024-03-02T00:18:48;18.17;;;11.37;;
12892;SDS011;6514;48.606;9.222;2024-03-02T00:21:15;18.47;;;12.03;;
12892;SDS011;6514;48.606;9.222;2024-03-02T00:23:45;17.23;;;11.73;;
12892;SDS011;6514;48.606;9.222;2024-03-02T00:26:12;18.63;;;12.20;;
12892;SDS011;6514;48.606;9.222;2024-03-02T00:28:39;17.40;;;11.13;;
12892;SDS011;6514;48.606;9.222;2024-03-02T00:31:08;16.87;;;11.13;;
12892;SDS011;6514;48.606;9.222;2024-03-02T00:33:37;17.50;;;11.17;;
12892;SDS011;6514;48.606;9.222;2024-03-02T00:36:08;16.97;;;11.10;;
12892;SDS011;6514;48.606;9.222;2024-03-02T00:38:41;16.07;;;10.60;;
12892;SDS011;6514;48.606;9.222;2024-03-02T00:41:15;17.87;;;10.87;;
12892;SDS011;6514;48.606;9.222;2024-03-02T00:43:43;18.57;;;10.80;;
12892;SDS011;6514;48.606;9.222;2024-03-02T00:46:15;16.87;;;10.10;;
12892;SDS011;6514;48.606;9.222;2024-03-02T00:48:48;17.23;;;10.57;;
12892;SDS011;6514;48.606;9.222;2024-03-02T00:51:19;16.33;;;10.57;;
12892;SDS011;6514;48.606;9.222;2024-03-02T00:53:46;14.07;;;10.03;;
12892;SDS011;6514;48.606;9.222;2024-03-02T00:56:13;14.47;;;9.40;;
12892;SDS011;6514;48.606;9.222;2024-03-02T00:58:40;16.30;;;11.00;;
12892;SDS011;6514;48.606;9.222;2024-03-02T01:01:07;14.90;;;10.13;;
12892;SDS011;6514;48.606;9.222;2024-03-02T01:03:34;15.53;;;10.27;;
12892;SDS011;6514;48.606;9.222;2024-03-02T01:06:02;15.50;;;10.13;;
12892;SDS011;6514;48.606;9.222;2024-03-02T01:08:31;15.23;;;9.73;;
12892;SDS011;6514;48.606;9.222;2024-03-02T01:10:57;13.33;;;9.47;;
12892;SDS011;6514;48.606;9.222;2024-03-02T01:13:24;14.77;;;9.87;;
12892;SDS011;6514;48.606;9.222;2024-03-02T01:15:51;12.57;;;9.43;;
12892;SDS011;6514;48.606;9.222;2024-03-02T01:18:18;13.93;;;9.47;;
12892;SDS011;6514;48.606;9.222;2024-03-02T01:20:45;12.87;;;9.67;;
12892;SDS011;6514;48.606;9.222;2024-03-02T01:23:12;11.73;;;8.93;;
12892;SDS011;6514;48.606;9.222;2024-03-02T01:25:40;12.87;;;8.90;;
12892;SDS011;6514;48.606;9.222;2024-03-02T01:28:07;14.10;;;9.70;;
12892;SDS011;6514;48.606;9.222;2024-03-02T01:30:33;15.30;;;9.60;;
12892;SDS011;6514;48.606;9.222;2024-03-02T01:33:01;14.20;;;10.00;;
12892;SDS011;6514;48.606;9.222;2024-03-02T01:35:30;11.87;;;8.87;;
12892;SDS011;6514;48.606;9.222;2024-03-02T01:37:57;12.17;;;8.63;;
12892;SDS011;6514;48.606;9.222;2024-03-02T01:40:24;13.10;;;8.90;;
12892;SDS011;6514;48.606;9.222;2024-03-02T01:42:53;12.43;;;8.57;;
12892;SDS011;6514;48.606;9.222;2024-03-02T01:45:20;12.40;;;8.40;;
12892;SDS011;6514;48.606;9.222;2024-03-02T01:47:47;13.27;;;8.90;;
12892;SDS011;6514;48.606;9.222;2024-03-02T01:50:14;12.13;;;8.17;;
12892;SDS011;6514;48.606;9.222;2024-03-02T01:52:41;11.70;;;8.73;;
12892;SDS011;6514;48.606;9.222;2024-03-02T01:55:09;12.50;;;8.93;;
12892;SDS011;6514;48.606;9.222;2024-03-02T01:57:36;10.53;;;8.53;;
12892;SDS011;6514;48.606;9.222;2024-03-02T02:00:05;12.37;;;8.33;;
12892;SDS011;6514;48.606;9.222;2024-03-02T02:02:34;12.93;;;8.80;;
12892;SDS011;6514;48.606;9.222;2024-03-02T02:05:01;11.17;;;8.17;;
12892;SDS011;6514;48.606;9.222;2024-03-02T02:07:28;12.97;;;7.80;;
12892;SDS011;6514;48.606;9.222;2024-03-02T02:09:56;11.40;;;7.93;;
12892;SDS011;6514;48.606;9.222;2024-03-02T02:12:23;12.07;;;8.23;;
12892;SDS011;6514;48.606;9.222;2024-03-02T02:14:50;11.37;;;7.67;;
12892;SDS011;6514;48.606;9.222;2024-03-02T02:17:18;12.13;;;8.50;;
12892;SDS011;6514;48.606;9.222;2024-03-02T02:19:45;11.63;;;7.67;;
12892;SDS011;6514;48.606;9.222;2024-03-02T02:22:13;12.00;;;8.20;;
12892;SDS011;6514;48.606;9.222;2024-03-02T02:24:40;11.77;;;7.80;;
12892;SDS011;6514;48.606;9.222;2024-03-02T02:27:07;11.63;;;7.73;;
12892;SDS011;6514;48.606;9.222;2024-03-02T02:29:35;13.67;;;9.50;;
12892;SDS011;6514;48.606;9.222;2024-03-02T02:32:02;12.93;;;8.77;;
12892;SDS011;6514;48.606;9.222;2024-03-02T02:34:29;12.70;;;8.40;;
12892;SDS011;6514;48.606;9.222;2024-03-02T02:36:55;14.53;;;9.70;;
12892;SDS011;6514;48.606;9.222;2024-03-02T02:39:24;12.83;;;9.37;;
12892;SDS011;6514;48.606;9.222;2024-03-02T02:41:50;17.73;;;9.60;;
12892;SDS011;6514;48.606;9.222;2024-03-02T02:44:17;14.00;;;9.00;;
12892;SDS011;6514;48.606;9.222;2024-03-02T02:46:44;14.37;;;9.60;;
12892;SDS011;6514;48.606;9.222;2024-03-02T02:49:11;16.87;;;10.20;;
12892;SDS011;6514;48.606;9.222;2024-03-02T02:51:38;13.57;;;8.87;;
12892;SDS011;6514;48.606;9.222;2024-03-02T02:54:05;12.83;;;8.03;;
12892;SDS011;6514;48.606;9.222;2024-03-02T02:56:33;13.77;;;9.10;;
12892;SDS011;6514;48.606;9.222;2024-03-02T02:58:59;15.47;;;8.97;;
12892;SDS011;6514;48.606;9.222;2024-03-02T03:01:26;14.93;;;9.00;;
12892;SDS011;6514;48.606;9.222;2024-03-02T03:03:53;14.27;;;9.43;;
12892;SDS011;6514;48.606;9.222;2024-03-02T03:06:20;13.83;;;8.57;;
12892;SDS011;6514;48.606;9.222;2024-03-02T03:08:47;12.60;;;8.33;;
12892;SDS011;6514;48.606;9.222;2024-03-02T03:11:13;12.17;;;8.60;;
12892;SDS011;6514;48.606;9.222;2024-03-02T03:13:42;13.90;;;9.00;;
12892;SDS011;6514;48.606;9.222;2024-03-02T03:16:09;15.13;;;9.40;;
12892;SDS011;6514;48.606;9.222;2024-03-02T03:18:35;11.57;;;7.73;;
12892;SDS011;6514;48.606;9.222;2024-03-02T03:21:03;12.13;;;8.30;;
12892;SDS011;6514;48.606;9.222;2024-03-02T03:23:30;13.27;;;8.30;;
12892;SDS011;6514;48.606;9.222;2024-03-02T03:25:57;12.17;;;7.93;;
12892;SDS011;6514;48.606;9.222;2024-03-02T03:28:23;11.73;;;7.90;;
12892;SDS011;6514;48.606;9.222;2024-03-02T03:30:52;10.90;;;8.23;;
12892;SDS011;6514;48.606;9.222;2024-03-02T03:33:18;12.10;;;7.73;;
12892;SDS011;6514;48.606;9.222;2024-03-02T03:35:45;13.63;;;8.70;;
12892;SDS011;6514;48.606;9.222;2024-03-02T03:38:13;14.10;;;8.83;;
12892;SDS011;6514;48.606;9.222;2024-03-02T03:40:40;13.23;;;8.07;;
12892;SDS011;6514;48.606;9.222;2024-03-02T03:43:07;12.83;;;8.30;;
12892;SDS011;6514;48.606;9.222;2024-03-02T03:45:33;13.37;;;7.97;;
12892;SDS011;6514;48.606;9.222;2024-03-02T03:48:02;12.97;;;7.90;;
12892;SDS011;6514;48.606;9.222;2024-03-02T03:50:29;12.03;;;7.73;;
12892;SDS011;6514;48.606;9.222;2024-03-02T03:52:55;14.53;;;8.60;;
12892;SDS011;6514;48.606;9.222;2024-03-02T03:55:22;15.07;;;8.43;;
12892;SDS011;6514;48.606;9.222;2024-03-02T03:57:49;13.87;;;9.03;;
12892;SDS011;6514;48.606;9.222;2024-03-02T04:00:15;13.33;;;8.10;;
12892;SDS011;6514;48.606;9.222;2024-03-02T04:02:42;11.80;;;8.10;;
12892;SDS011;6514;48.606;9.222;2024-03-02T04:05:10;15.07;;;9.00;;
12892;SDS011;6514;48.606;9.222;2024-03-02T04:07:37;16.57;;;9.33;;
12892;SDS011;6514;48.606;9.222;2024-03-02T04:10:08;15.60;;;9.43;;
12892;SDS011;6514;48.606;9.222;2024-03-02T04:12:35;17.40;;;9.67;;
12892;SDS011;6514;48.606;9.222;2024-03-02T04:15:03;17.27;;;9.80;;
12892;SDS011;6514;48.606;9.222;2024-03-02T04:17:31;16.73;;;9.90;;
12892;SDS011;6514;48.606;9.222;2024-03-02T04:20:00;16.70;;;9.43;;
12892;SDS011;6514;48.606;9.222;2024-03-02T04:22:30;17.40;;;9.63;;
12892;SDS011;6514;48.606;9.222;2024-03-02T04:25:00;17.00;;;9.73;;
12892;SDS011;6514;48.606;9.222;2024-03-02T04:27:29;16.83;;;10.30;;
12892;SDS011;6514;48.606;9.222;2024-03-02T04:29:56;20.57;;;12.20;;
12892;SDS011;6514;48.606;9.222;2024-03-02T04:32:26;28.07;;;15.90;;
12892;SDS011;6514;48.606;9.222;2024-03-02T04:34:53;26.60;;;15.67;;
12892;SDS011;6514;48.606;9.222;2024-03-02T04:37:19;24.73;;;15.90;;
12892;SDS011;6514;48.606;9.222;2024-03-02T04:39:48;23.90;;;14.53;;
12892;SDS011;6514;48.606;9.222;2024-03-02T04:42:15;24.70;;;13.33;;
12892;SDS011;6514;48.606;9.222;2024-03-02T04:44:41;22.90;;;13.53;;
12892;SDS011;6514;48.606;9.222;2024-03-02T04:47:08;22.33;;;12.40;;
12892;SDS011;6514;48.606;9.222;2024-03-02T04:49:35;17.83;;;12.10;;
12892;SDS011;6514;48.606;9.222;2024-03-02T04:52:02;18.20;;;10.93;;
12892;SDS011;6514;48.606;9.222;2024-03-02T04:54:29;19.23;;;10.87;;
12892;SDS011;6514;48.606;9.222;2024-03-02T04:56:57;23.77;;;11.60;;
12892;SDS011;6514;48.606;9.222;2024-03-02T04:59:24;19.07;;;11.50;;
12892;SDS011;6514;48.606;9.222;2024-03-02T05:01:51;19.17;;;11.50;;
12892;SDS011;6514;48.606;9.222;2024-03-02T05:04:18;18.50;;;11.77;;
12892;SDS011;6514;48.606;9.222;2024-03-02T05:06:44;21.40;;;11.07;;
12892;SDS011;6514;48.606;9.222;2024-03-02T05:09:17;18.00;;;10.77;;
12892;SDS011;6514;48.606;9.222;2024-03-02T05:11:44;17.60;;;10.47;;
12892;SDS011;6514;48.606;9.222;2024-03-02T05:14:36;18.87;;;10.67;;
12892;SDS011;6514;48.606;9.222;2024-03-02T05:17:03;17.07;;;10.23;;
12892;SDS011;6514;48.606;9.222;2024-03-02T05:19:30;19.57;;;11.23;;
12892;SDS011;6514;48.606;9.222;2024-03-02T05:21:57;20.40;;;11.47;;
12892;SDS011;6514;48.606;9.222;2024-03-02T05:24:24;17.60;;;10.33;;
12892;SDS011;6514;48.606;9.222;2024-03-02T05:26:53;17.53;;;11.10;;
12892;SDS011;6514;48.606;9.222;2024-03-02T05:29:19;22.23;;;12.37;;
12892;SDS011;6514;48.606;9.222;2024-03-02T05:31:48;23.13;;;12.20;;
12892;SDS011;6514;48.606;9.222;2024-03-02T05:34:14;19.33;;;11.23;;
12892;SDS011;6514;48.606;9.222;2024-03-02T05:36:41;16.67;;;10.77;;
12892;SDS011;6514;48.606;9.222;2024-03-02T05:39:08;18.23;;;10.67;;
12892;SDS011;6514;48.606;9.222;2024-03-02T05:41:35;15.13;;;9.77;;
12892;SDS011;6514;48.606;9.222;2024-03-02T05:44:03;19.10;;;9.57;;
12892;SDS011;6514;48.606;9.222;2024-03-02T05:46:30;19.90;;;10.63;;
12892;SDS011;6514;48.606;9.222;2024-03-02T05:48:58;19.27;;;10.87;;
12892;SDS011;6514;48.606;9.222;2024-03-02T05:51:25;15.90;;;9.43;;
12892;SDS011;6514;48.606;9.222;2024-03-02T05:53:52;17.63;;;9.97;;
12892;SDS011;6514;48.606;9.222;2024-03-02T05:56:19;16.87;;;10.37;;
12892;SDS011;6514;48.606;9.222;2024-03-02T05:58:45;18.37;;;10.43;;
12892;SDS011;6514;48.606;9.222;2024-03-02T06:01:22;18.07;;;9.67;;
12892;SDS011;6514;48.606;9.222;2024-03-02T06:03:53;17.43;;;9.40;;
12892;SDS011;6514;48.606;9.222;2024-03-02T06:06:21;14.87;;;9.40;;
12892;SDS011;6514;48.606;9.222;2024-03-02T06:08:49;17.83;;;9.93;;
12892;SDS011;6514;48.606;9.222;2024-03-02T06:11:16;17.57;;;10.00;;
12892;SDS011;6514;48.606;9.222;2024-03-02T06:13:43;17.10;;;10.67;;
12892;SDS011;6514;48.606;9.222;2024-03-02T06:16:10;16.50;;;9.90;;
12892;SDS011;6514;48.606;9.222;2024-03-02T06:18:37;19.30;;;10.53;;
12892;SDS011;6514;48.606;9.222;2024-03-02T06:21:04;19.40;;;9.90;;
12892;SDS011;6514;48.606;9.222;2024-03-02T06:23:32;19.17;;;10.33;;
12892;SDS011;6514;48.606;9.222;2024-03-02T06:25:59;17.37;;;9.70;;
12892;SDS011;6514;48.606;9.222;2024-03-02T06:28:27;17.07;;;10.00;;
12892;SDS011;6514;48.606;9.222;2024-03-02T06:30:54;15.60;;;9.47;;
12892;SDS011;6514;48.606;9.222;2024-03-02T06:33:21;15.87;;;8.90;;
12892;SDS011;6514;48.606;9.222;2024-03-02T06:35:47;15.17;;;9.47;;
12892;SDS011;6514;48.606;9.222;2024-03-02T06:38:15;16.87;;;9.90;;
12892;SDS011;6514;48.606;9.222;2024-03-02T06:40:43;16.93;;;10.47;;
12892;SDS011;6514;48.606;9.222;2024-03-02T06:43:10;17.57;;;10.17;;
12892;SDS011;6514;48.606;9.222;2024-03-02T06:45:37;18.63;;;10.37;;
12892;SDS011;6514;48.606;9.222;2024-03-02T06:48:04;19.33;;;10.97;;
12892;SDS011;6514;48.606;9.222;2024-03-02T06:50:31;20.40;;;11.40;;
12892;SDS011;6514;48.606;9.222;2024-03-02T06:52:58;15.87;;;10.13;;
12892;SDS011;6514;48.606;9.222;2024-03-02T06:55:25;17.77;;;10.20;;
12892;SDS011;6514;48.606;9.222;2024-03-02T06:57:53;22.87;;;11.83;;
12892;SDS011;6514;48.606;9.222;2024-03-02T07:00:20;19.93;;;10.97;;
12892;SDS011;6514;48.606;9.222;2024-03-02T07:02:46;19.00;;;11.20;;
12892;SDS011;6514;48.606;9.222;2024-03-02T07:05:14;20.57;;;11.80;;
12892;SDS011;6514;48.606;9.222;2024-03-02T07:07:40;18.50;;;10.37;;
12892;SDS011;6514;48.606;9.222;2024-03-02T07:10:07;19.93;;;11.30;;
12892;SDS011;6514;48.606;9.222;2024-03-02T07:12:35;16.37;;;10.80;;
12892;SDS011;6514;48.606;9.222;2024-03-02T07:15:04;18.50;;;10.80;;
12892;SDS011;6514;48.606;9.222;2024-03-02T07:17:50;15.93;;;10.23;;
12892;SDS011;6514;48.606;9.222;2024-03-02T07:20:17;21.47;;;10.97;;
12892;SDS011;6514;48.606;9.222;2024-03-02T07:22:43;18.90;;;10.50;;
12892;SDS011;6514;48.606;9.222;2024-03-02T07:25:10;16.80;;;11.13;;
12892;SDS011;6514;48.606;9.222;2024-03-02T07:27:37;16.20;;;10.03;;
12892;SDS011;6514;48.606;9.222;2024-03-02T07:30:06;15.80;;;10.90;;
12892;SDS011;6514;48.606;9.222;2024-03-02T07:32:34;13.00;;;9.40;;
12892;SDS011;6514;48.606;9.222;2024-03-02T07:35:01;14.00;;;9.70;;
12892;SDS011;6514;48.606;9.222;2024-03-02T07:37:28;12.10;;;8.67;;
12892;SDS011;6514;48.606;9.222;2024-03-02T07:39:55;11.13;;;8.00;;
12892;SDS011;6514;48.606;9.222;2024-03-02T07:42:22;8.60;;;6.80;;
12892;SDS011;6514;48.606;9.222;2024-03-02T07:44:49;13.10;;;7.93;;
12892;SDS011;6514;48.606;9.222;2024-03-02T07:47:17;7.90;;;6.93;;
12892;SDS011;6514;48.606;9.222;2024-03-02T07:49:44;9.47;;;7.23;;
12892;SDS011;6514;48.606;9.222;2024-03-02T07:52:12;8.20;;;6.63;;
12892;SDS011;6514;48.606;9.222;2024-03-02T07:54:38;9.40;;;7.10;;
12892;SDS011;6514;48.606;9.222;2024-03-02T07:57:05;9.83;;;6.80;;
12892;SDS011;6514;48.606;9.222;2024-03-02T07:59:33;8.30;;;6.30;;
12892;SDS011;6514;48.606;9.222;2024-03-02T08:02:00;9.90;;;6.47;;
12892;SDS011;6514;48.606;9.222;2024-03-02T08:04:28;8.57;;;6.67;;
12892;SDS011;6514;48.606;9.222;2024-03-02T08:06:55;7.33;;;6.13;;
12892;SDS011;6514;48.606;9.222;2024-03-02T08:09:23;10.63;;;6.87;;
12892;SDS011;6514;48.606;9.222;2024-03-02T08:11:49;10.00;;;7.20;;
12892;SDS011;6514;48.606;9.222;2024-03-02T08:14:16;9.27;;;6.80;;
12892;SDS011;6514;48.606;9.222;2024-03-02T08:16:43;9.17;;;6.30;;
12892;SDS011;6514;48.606;9.222;2024-03-02T08:19:11;12.20;;;7.70;;
12892;SDS011;6514;48.606;9.222;2024-03-02T08:21:39;8.40;;;6.63;;
12892;SDS011;6514;48.606;9.222;2024-03-02T08:24:06;8.70;;;6.47;;
12892;SDS011;6514;48.606;9.222;2024-03-02T08:26:33;10.17;;;7.80;;
12892;SDS011;6514;48.606;9.222;2024-03-02T08:29:00;6.30;;;5.43;;
12892;SDS011;6514;48.606;9.222;2024-03-02T08:31:28;7.17;;;5.90;;
12892;SDS011;6514;48.606;9.222;2024-03-02T08:33:55;6.83;;;5.33;;
12892;SDS011;6514;48.606;9.222;2024-03-02T08:36:23;7.13;;;5.33;;
12892;SDS011;6514;48.606;9.222;2024-03-02T08:38:52;7.57;;;5.60;;
12892;SDS011;6514;48.606;9.222;2024-03-02T08:41:19;7.13;;;5.70;;
12892;SDS011;6514;48.606;9.222;2024-03-02T08:43:45;5.40;;;4.90;;
12892;SDS011;6514;48.606;9.222;2024-03-02T08:46:12;5.67;;;4.57;;
12892;SDS011;6514;48.606;9.222;2024-03-02T08:48:39;4.93;;;4.43;;
12892;SDS011;6514;48.606;9.222;2024-03-02T08:51:06;5.77;;;4.67;;
12892;SDS011;6514;48.606;9.222;2024-03-02T08:53:35;5.03;;;4.13;;
12892;SDS011;6514;48.606;9.222;2024-03-02T08:56:04;4.77;;;4.13;;
12892;SDS011;6514;48.606;9.222;2024-03-02T08:58:31;4.20;;;3.80;;
12892;SDS011;6514;48.606;9.222;2024-03-02T09:00:58;4.20;;;3.80;;
12892;SDS011;6514;48.606;9.222;2024-03-02T09:03:25;4.10;;;3.53;;
12892;SDS011;6514;48.606;9.222;2024-03-02T09:05:52;4.53;;;4.07;;
12892;SDS011;6514;48.606;9.222;2024-03-02T09:08:19;4.23;;;3.50;;
12892;SDS011;6514;48.606;9.222;2024-03-02T09:10:46;4.40;;;3.70;;
12892;SDS011;6514;48.606;9.222;2024-03-02T09:13:14;4.03;;;3.63;;
12892;SDS011;6514;48.606;9.222;2024-03-02T09:15:41;4.03;;;3.50;;
12892;SDS011;6514;48.606;9.222;2024-03-02T09:18:09;4.07;;;3.60;;
12892;SDS011;6514;48.606;9.222;2024-03-02T09:20:36;4.03;;;3.40;;
12892;SDS011;6514;48.606;9.222;2024-03-02T09:23:03;4.37;;;3.97;;
12892;SDS011;6514;48.606;9.222;2024-03-02T09:25:30;4.17;;;3.77;;
12892;SDS011;6514;48.606;9.222;2024-03-02T09:27:57;6.23;;;4.53;;
12892;SDS011;6514;48.606;9.222;2024-03-02T09:30:25;4.50;;;4.10;;
12892;SDS011;6514;48.606;9.222;2024-03-02T09:32:52;4.50;;;4.10;;
12892;SDS011;6514;48.606;9.222;2024-03-02T09:35:19;4.50;;;4.10;;
12892;SDS011;6514;48.606;9.222;2024-03-02T09:37:46;4.37;;;3.97;;
12892;SDS011;6514;48.606;9.222;2024-03-02T09:40:13;5.07;;;4.20;;
12892;SDS011;6514;48.606;9.222;2024-03-02T09:42:41;5.23;;;4.00;;
12892;SDS011;6514;48.606;9.222;2024-03-02T09:45:09;4.33;;;3.93;;
12892;SDS011;6514;48.606;9.222;2024-03-02T09:47:37;5.17;;;3.90;;
12892;SDS011;6514;48.606;9.222;2024-03-02T09:50:05;4.30;;;3.90;;
12892;SDS011;6514;48.606;9.222;2024-03-02T09:52:32;5.00;;;4.33;;
12892;SDS011;6514;48.606;9.222;2024-03-02T09:55:00;6.10;;;4.30;;
12892;SDS011;6514;48.606;9.222;2024-03-02T09:57:27;4.30;;;3.90;;
12892;SDS011;6514;48.606;9.222;2024-03-02T09:59:54;4.93;;;4.30;;
12892;SDS011;6514;48.606;9.222;2024-03-02T10:02:20;3.97;;;3.50;;
12892;SDS011;6514;48.606;9.222;2024-03-02T10:04:50;4.23;;;3.40;;
12892;SDS011;6514;48.606;9.222;2024-03-02T10:07:17;4.03;;;3.63;;
12892;SDS011;6514;48.606;9.222;2024-03-02T10:09:45;5.30;;;4.40;;
12892;SDS011;6514;48.606;9.222;2024-03-02T10:12:13;3.77;;;3.47;;
12892;SDS011;6514;48.606;9.222;2024-03-02T10:14:41;4.60;;;4.20;;
12892;SDS011;6514;48.606;9.222;2024-03-02T10:17:09;4.63;;;3.73;;
12892;SDS011;6514;48.606;9.222;2024-03-02T10:19:37;5.23;;;4.00;;
12892;SDS011;6514;48.606;9.222;2024-03-02T10:22:07;3.60;;;3.30;;
12892;SDS011;6514;48.606;9.222;2024-03-02T10:24:35;3.10;;;2.80;;
12892;SDS011;6514;48.606;9.222;2024-03-02T10:27:06;3.73;;;3.43;;
12892;SDS011;6514;48.606;9.222;2024-03-02T10:29:36;4.20;;;3.80;;
12892;SDS011;6514;48.606;9.222;2024-03-02T10:32:04;3.37;;;3.07;;
12892;SDS011;6514;48.606;9.222;2024-03-02T10:34:32;3.40;;;3.10;;
12892;SDS011;6514;48.606;9.222;2024-03-02T10:36:59;3.17;;;2.87;;
12892;SDS011;6514;48.606;9.222;2024-03-02T10:39:27;3.83;;;3.37;;
12892;SDS011;6514;48.606;9.222;2024-03-02T10:41:56;3.17;;;2.87;;
12892;SDS011;6514;48.606;9.222;2024-03-02T10:44:24;4.30;;;3.57;;
12892;SDS011;6514;48.606;9.222;2024-03-02T10:46:52;3.10;;;2.53;;
12892;SDS011;6514;48.606;9.222;2024-03-02T10:49:22;3.30;;;3.00;;
12892;SDS011;6514;48.606;9.222;2024-03-02T10:51:50;2.27;;;2.07;;
12892;SDS011;6514;48.606;9.222;2024-03-02T10:54:17;2.67;;;2.47;;
12892;SDS011;6514;48.606;9.222;2024-03-02T10:56:52;2.87;;;2.60;;
12892;SDS011;6514;48.606;9.222;2024-03-02T10:59:24;3.20;;;2.90;;
12892;SDS011;6514;48.606;9.222;2024-03-02T11:01:55;5.30;;;3.10;;
12892;SDS011;6514;48.606;9.222;2024-03-02T11:04:24;2.80;;;2.60;;
12892;SDS011;6514;48.606;9.222;2024-03-02T11:06:54;4.03;;;2.93;;
12892;SDS011;6514;48.606;9.222;2024-03-02T11:09:26;2.93;;;2.63;;
12892;SDS011;6514;48.606;9.222;2024-03-02T11:12:05;2.53;;;2.33;;
12892;SDS011;6514;48.606;9.222;2024-03-02T11:14:43;2.67;;;2.40;;
12892;SDS011;6514;48.606;9.222;2024-03-02T11:17:10;3.05;;;2.75;;
12892;SDS011;6514;48.606;9.222;2024-03-02T11:19:40;2.60;;;2.10;;
12892;SDS011;6514;48.606;9.222;2024-03-02T11:22:10;2.00;;;1.80;;
12892;SDS011;6514;48.606;9.222;2024-03-02T11:24:38;3.30;;;1.80;;
12892;SDS011;6514;48.606;9.222;2024-03-02T11:27:06;2.07;;;1.87;;
12892;SDS011;6514;48.606;9.222;2024-03-02T11:29:45;2.10;;;1.90;;
12892;SDS011;6514;48.606;9.222;2024-03-02T11:32:14;5.07;;;2.63;;
12892;SDS011;6514;48.606;9.222;2024-03-02T11:34:43;5.00;;;2.03;;
12892;SDS011;6514;48.606;9.222;2024-03-02T11:37:12;2.73;;;2.10;;
12892;SDS011;6514;48.606;9.222;2024-03-02T11:39:40;2.80;;;2.40;;
12892;SDS011;6514;48.606;9.222;2024-03-02T11:42:09;2.07;;;1.87;;
12892;SDS011;6514;48.606;9.222;2024-03-02T11:44:39;2.20;;;2.00;;
12892;SDS011;6514;48.606;9.222;2024-03-02T11:47:07;2.67;;;2.20;;
12892;SDS011;6514;48.606;9.222;2024-03-02T11:49:37;2.17;;;1.97;;
12892;SDS011;6514;48.606;9.222;2024-03-02T11:52:05;1.80;;;1.60;;
12892;SDS011;6514;48.606;9.222;2024-03-02T11:54:33;3.00;;;2.57;;
12892;SDS011;6514;48.606;9.222;2024-03-02T11:57:01;2.93;;;2.30;;
12892;SDS011;6514;48.606;9.222;2024-03-02T11:59:29;1.40;;;1.30;;
12892;SDS011;6514;48.606;9.222;2024-03-02T12:01:56;1.70;;;1.60;;
12892;SDS011;6514;48.606;9.222;2024-03-02T12:04:24;2.20;;;1.50;;
12892;SDS011;6514;48.606;9.222;2024-03-02T12:06:54;1.97;;;1.77;;
12892;SDS011;6514;48.606;9.222;2024-03-02T12:09:24;1.80;;;1.60;;
12892;SDS011;6514;48.606;9.222;2024-03-02T12:12:00;3.43;;;1.90;;
12892;SDS011;6514;48.606;9.222;2024-03-02T12:14:30;1.70;;;1.60;;
12892;SDS011;6514;48.606;9.222;2024-03-02T12:16:58;1.30;;;1.10;;
12892;SDS011;6514;48.606;9.222;2024-03-02T12:19:25;1.60;;;1.50;;
12892;SDS011;6514;48.606;9.222;2024-03-02T12:21:52;1.73;;;1.60;;
12892;SDS011;6514;48.606;9.222;2024-03-02T12:24:20;1.90;;;1.40;;
12892;SDS011;6514;48.606;9.222;2024-03-02T12:26:48;1.70;;;1.50;;
12892;SDS011;6514;48.606;9.222;2024-03-02T12:29:16;4.20;;;1.67;;
12892;SDS011;6514;48.606;9.222;2024-03-02T12:31:45;0.80;;;0.80;;
12892;SDS011;6514;48.606;9.222;2024-03-02T12:34:15;1.30;;;1.20;;
12892;SDS011;6514;48.606;9.222;2024-03-02T12:36:43;1.63;;;1.00;;
12892;SDS011;6514;48.606;9.222;2024-03-02T12:39:12;1.30;;;1.20;;
12892;SDS011;6514;48.606;9.222;2024-03-02T12:41:40;1.20;;;0.97;;
12892;SDS011;6514;48.606;9.222;2024-03-02T12:44:07;1.77;;;1.13;;
12892;SDS011;6514;48.606;9.222;2024-03-02T12:46:34;0.83;;;0.83;;
12892;SDS011;6514;48.606;9.222;2024-03-02T12:49:07;1.07;;;0.93;;
12892;SDS011;6514;48.606;9.222;2024-03-02T12:51:36;1.20;;;1.10;;
12892;SDS011;6514;48.606;9.222;2024-03-02T12:54:03;1.10;;;1.00;;
12892;SDS011;6514;48.606;9.222;2024-03-02T12:56:30;1.00;;;1.00;;
12892;SDS011;6514;48.606;9.222;2024-03-02T12:58:58;1.37;;;1.27;;
12892;SDS011;6514;48.606;9.222;2024-03-02T13:01:26;1.43;;;1.33;;
12892;SDS011;6514;48.606;9.222;2024-03-02T13:03:53;1.20;;;1.10;;
12892;SDS011;6514;48.606;9.222;2024-03-02T13:06:22;1.50;;;1.00;;
12892;SDS011;6514;48.606;9.222;2024-03-02T13:08:52;1.00;;;0.90;;
12892;SDS011;6514;48.606;9.222;2024-03-02T13:11:19;1.23;;;1.00;;
12892;SDS011;6514;48.606;9.222;2024-03-02T13:13:48;1.27;;;1.00;;
12892;SDS011;6514;48.606;9.222;2024-03-02T13:16:15;1.30;;;1.00;;
12892;SDS011;6514;48.606;9.222;2024-03-02T13:18:44;1.33;;;0.97;;
12892;SDS011;6514;48.606;9.222;2024-03-02T13:21:11;0.93;;;0.93;;
12892;SDS011;6514;48.606;9.222;2024-03-02T13:23:39;1.90;;;0.90;;
12892;SDS011;6514;48.606;9.222;2024-03-02T13:26:06;1.17;;;1.07;;
12892;SDS011;6514;48.606;9.222;2024-03-02T13:28:35;0.80;;;0.80;;
12892;SDS011;6514;48.606;9.222;2024-03-02T13:31:03;0.97;;;0.90;;
12892;SDS011;6514;48.606;9.222;2024-03-02T13:33:30;1.87;;;0.83;;
12892;SDS011;6514;48.606;9.222;2024-03-02T13:35:58;1.10;;;0.80;;
12892;SDS011;6514;48.606;9.222;2024-03-02T13:38:24;1.80;;;0.87;;
12892;SDS011;6514;48.606;9.222;2024-03-02T13:40:53;0.80;;;0.77;;
12892;SDS011;6514;48.606;9.222;2024-03-02T13:43:20;0.80;;;0.80;;
12892;SDS011;6514;48.606;9.222;2024-03-02T13:45:48;0.80;;;0.80;;
12892;SDS011;6514;48.606;9.222;2024-03-02T13:48:17;0.90;;;0.90;;
12892;SDS011;6514;48.606;9.222;2024-03-02T13:50:44;0.80;;;0.80;;
12892;SDS011;6514;48.606;9.222;2024-03-02T13:53:11;0.90;;;0.80;;
12892;SDS011;6514;48.606;9.222;2024-03-02T13:55:38;2.33;;;1.27;;
12892;SDS011;6514;48.606;9.222;2024-03-02T13:58:08;0.80;;;0.80;;
12892;SDS011;6514;48.606;9.222;2024-03-02T14:00:35;1.10;;;0.87;;
12892;SDS011;6514;48.606;9.222;2024-03-02T14:03:02;1.53;;;1.17;;
12892;SDS011;6514;48.606;9.222;2024-03-02T14:05:30;2.50;;;1.10;;
12892;SDS011;6514;48.606;9.222;2024-03-02T14:07:56;0.90;;;0.90;;
12892;SDS011;6514;48.606;9.222;2024-03-02T14:10:23;1.07;;;0.83;;
12892;SDS011;6514;48.606;9.222;2024-03-02T14:12:50;1.80;;;0.70;;
12892;SDS011;6514;48.606;9.222;2024-03-02T14:15:18;0.60;;;0.60;;
12892;SDS011;6514;48.606;9.222;2024-03-02T14:17:45;1.00;;;0.90;;
12892;SDS011;6514;48.606;9.222;2024-03-02T14:20:12;0.80;;;0.70;;
12892;SDS011;6514;48.606;9.222;2024-03-02T14:22:39;0.63;;;0.63;;
12892;SDS011;6514;48.606;9.222;2024-03-02T14:25:06;0.70;;;0.70;;
12892;SDS011;6514;48.606;9.222;2024-03-02T14:27:34;15.37;;;4.93;;
12892;SDS011;6514;48.606;9.222;2024-03-02T14:30:01;3.10;;;1.33;;
12892;SDS011;6514;48.606;9.222;2024-03-02T14:32:30;10.33;;;3.80;;
12892;SDS011;6514;48.606;9.222;2024-03-02T14:34:56;1.37;;;0.90;;
12892;SDS011;6514;48.606;9.222;2024-03-02T14:37:23;0.90;;;0.80;;
12892;SDS011;6514;48.606;9.222;2024-03-02T14:39:50;0.80;;;0.80;;
12892;SDS011;6514;48.606;9.222;2024-03-02T14:42:17;0.73;;;0.70;;
12892;SDS011;6514;48.606;9.222;2024-03-02T14:44:44;0.90;;;0.80;;
12892;SDS011;6514;48.606;9.222;2024-03-02T14:47:10;1.07;;;0.80;;
12892;SDS011;6514;48.606;9.222;2024-03-02T14:49:38;1.10;;;1.00;;
12892;SDS011;6514;48.606;9.222;2024-03-02T14:52:06;0.77;;;0.77;;
12892;SDS011;6514;48.606;9.222;2024-03-02T14:54:34;1.17;;;0.90;;